Time;durP1;ratioP1;P1;durP2;ratioP2;P2;SDS_P1;SDS_P2;PMS_P1;PMS_P2;Temp;Humidity;BMP_temperature;BMP_pressure;BME280_temperature;BME280_humidity;BME280_pressure;Samples;Min_cycle;Max_cycle;Signal;HPM_P1;HPM_P2
2023/03/01 00:02:22;;;;;;;21.90;17.40;;;;;;;;;;5074108;28;20476;-77
2023/03/01 00:04:49;;;;;;;23.40;16.23;;;;;;;;;;5073886;28;20456;-75
2023/03/01 00:07:16;;;;;;;19.40;17.23;;;;;;;;;;5074146;28;20471;-77
2023/03/01 00:09:45;;;;;;;18.67;16.40;;;;;;;;;;5073896;28;20451;-76
2023/03/01 00:12:12;;;;;;;21.07;17.10;;;;;;;;;;5075365;28;20491;-76
2023/03/01 00:14:40;;;;;;;19.53;17.20;;;;;;;;;;5083990;28;20420;-79
2023/03/01 00:17:07;;;;;;;24.23;17.27;;;;;;;;;;5098385;28;20441;-79
2023/03/01 00:19:34;;;;;;;19.30;16.17;;;;;;;;;;5097637;28;20490;-79
2023/03/01 00:22:01;;;;;;;21.77;17.63;;;;;;;;;;5095515;28;20449;-76
2023/03/01 00:24:28;;;;;;;20.70;16.83;;;;;;;;;;5075819;28;20451;-74
2023/03/01 00:26:56;;;;;;;22.53;16.90;;;;;;;;;;5072206;28;20468;-77
2023/03/01 00:29:24;;;;;;;23.57;18.13;;;;;;;;;;5073142;28;20520;-75
2023/03/01 00:31:51;;;;;;;21.30;16.23;;;;;;;;;;5073468;28;20489;-74
2023/03/01 00:34:18;;;;;;;20.77;17.57;;;;;;;;;;5076237;28;20455;-75
2023/03/01 00:36:45;;;;;;;21.40;17.47;;;;;;;;;;5080129;28;20444;-74
2023/03/01 00:39:13;;;;;;;20.63;18.23;;;;;;;;;;5090498;28;20421;-77
2023/03/01 00:41:40;;;;;;;21.87;17.73;;;;;;;;;;5098235;28;20461;-77
2023/03/01 00:44:09;;;;;;;20.77;17.27;;;;;;;;;;5097317;28;20469;-78
2023/03/01 00:46:36;;;;;;;22.57;16.80;;;;;;;;;;5090856;28;20801;-76
2023/03/01 00:49:04;;;;;;;22.33;18.03;;;;;;;;;;5073655;28;20444;-75
2023/03/01 00:51:31;;;;;;;21.33;17.70;;;;;;;;;;5073641;28;20525;-76
2023/03/01 00:53:59;;;;;;;22.80;18.10;;;;;;;;;;5073822;28;20539;-75
2023/03/01 00:56:27;;;;;;;24.00;17.93;;;;;;;;;;5074220;28;20455;-74
2023/03/01 00:58:54;;;;;;;23.97;17.87;;;;;;;;;;5073723;28;20507;-74
2023/03/01 01:01:23;;;;;;;20.23;17.47;;;;;;;;;;5072488;28;20611;-78
2023/03/01 01:03:51;;;;;;;20.30;17.60;;;;;;;;;;5073252;28;20483;-75
2023/03/01 01:06:20;;;;;;;23.43;18.00;;;;;;;;;;5074051;28;20539;-76
2023/03/01 01:08:47;;;;;;;25.47;18.23;;;;;;;;;;5073093;28;20546;-75
2023/03/01 01:11:15;;;;;;;21.90;18.83;;;;;;;;;;5072294;28;20502;-76
2023/03/01 01:13:42;;;;;;;24.53;17.67;;;;;;;;;;5071726;28;20830;-75
2023/03/01 01:16:09;;;;;;;21.87;17.60;;;;;;;;;;5072265;28;20444;-75
2023/03/01 01:18:38;;;;;;;23.53;17.30;;;;;;;;;;5072270;28;20449;-74
2023/03/01 01:21:05;;;;;;;22.13;17.70;;;;;;;;;;5072064;28;20437;-74
2023/03/01 01:23:33;;;;;;;28.60;18.27;;;;;;;;;;5072459;28;20642;-74
2023/03/01 01:26:04;;;;;;;25.37;17.90;;;;;;;;;;5072144;28;20441;-75
2023/03/01 01:28:31;;;;;;;20.87;17.67;;;;;;;;;;5072311;28;20519;-74
2023/03/01 01:30:58;;;;;;;20.73;17.93;;;;;;;;;;5072103;28;20476;-75
2023/03/01 01:33:26;;;;;;;22.57;17.37;;;;;;;;;;5072041;28;20464;-76
2023/03/01 01:35:55;;;;;;;20.30;16.90;;;;;;;;;;5071984;28;20444;-75
2023/03/01 01:38:22;;;;;;;22.23;17.40;;;;;;;;;;5071853;28;20962;-76
2023/03/01 01:40:49;;;;;;;22.07;17.87;;;;;;;;;;5072171;28;20444;-76
2023/03/01 01:43:19;;;;;;;21.20;17.03;;;;;;;;;;5071797;28;20461;-75
2023/03/01 01:45:46;;;;;;;21.67;18.47;;;;;;;;;;5071933;28;20441;-74
2023/03/01 01:48:16;;;;;;;24.10;18.67;;;;;;;;;;5071885;28;20464;-75
2023/03/01 01:50:44;;;;;;;20.80;16.77;;;;;;;;;;5071745;28;20479;-76
2023/03/01 01:53:14;;;;;;;21.27;16.97;;;;;;;;;;5072374;28;20477;-75
2023/03/01 01:55:42;;;;;;;22.00;17.70;;;;;;;;;;5072335;28;20828;-75
2023/03/01 01:58:10;;;;;;;22.37;18.33;;;;;;;;;;5071763;28;20849;-74
2023/03/01 02:00:38;;;;;;;22.67;17.27;;;;;;;;;;5071415;28;20454;-74
2023/03/01 02:03:07;;;;;;;23.83;18.37;;;;;;;;;;5070991;28;20510;-74
2023/03/01 02:05:38;;;;;;;27.03;19.77;;;;;;;;;;5072347;28;20444;-74
2023/03/01 02:08:05;;;;;;;24.97;18.83;;;;;;;;;;5072865;28;20452;-73
2023/03/01 02:10:36;;;;;;;24.53;19.17;;;;;;;;;;5072905;28;20433;-76
2023/03/01 02:13:04;;;;;;;25.20;18.80;;;;;;;;;;5072791;28;20465;-76
2023/03/01 02:15:33;;;;;;;23.30;17.97;;;;;;;;;;5072788;28;20445;-74
2023/03/01 02:18:00;;;;;;;21.27;17.73;;;;;;;;;;5072161;28;20909;-76
2023/03/01 02:20:29;;;;;;;22.17;18.37;;;;;;;;;;5071449;28;20982;-75
2023/03/01 02:22:57;;;;;;;24.57;18.37;;;;;;;;;;5070636;28;20518;-76
2023/03/01 02:25:35;;;;;;;21.93;18.10;;;;;;;;;;5071228;28;20445;-74
2023/03/01 02:28:07;;;;;;;21.63;17.67;;;;;;;;;;5071062;28;20453;-76
2023/03/01 02:30:36;;;;;;;21.77;17.63;;;;;;;;;;5071058;28;20527;-75
2023/03/01 02:33:03;;;;;;;21.37;18.10;;;;;;;;;;5074033;28;20465;-76
2023/03/01 02:35:32;;;;;;;22.87;17.93;;;;;;;;;;5083346;28;20445;-73
2023/03/01 02:38:00;;;;;;;23.80;18.07;;;;;;;;;;5081618;28;20448;-76
2023/03/01 02:40:29;;;;;;;24.37;18.17;;;;;;;;;;5080974;28;20471;-75
2023/03/01 02:42:57;;;;;;;25.97;19.27;;;;;;;;;;5080643;28;20467;-75
2023/03/01 02:45:25;;;;;;;23.80;19.10;;;;;;;;;;5072934;28;20452;-74
2023/03/01 02:47:55;;;;;;;29.63;20.33;;;;;;;;;;5092264;28;20436;-78
2023/03/01 02:50:26;;;;;;;25.63;19.47;;;;;;;;;;5095633;28;20451;-78
2023/03/01 02:52:59;;;;;;;23.67;18.40;;;;;;;;;;5095186;28;20475;-77
2023/03/01 02:55:27;;;;;;;24.33;17.83;;;;;;;;;;5088501;28;20440;-75
2023/03/01 02:57:55;;;;;;;26.57;18.30;;;;;;;;;;5070968;28;20437;-75
2023/03/01 03:00:23;;;;;;;28.43;19.20;;;;;;;;;;5070564;28;20441;-76
2023/03/01 03:02:50;;;;;;;24.17;19.13;;;;;;;;;;5069533;28;20461;-74
2023/03/01 03:05:20;;;;;;;27.00;19.50;;;;;;;;;;5070358;28;20458;-75
2023/03/01 03:07:48;;;;;;;24.17;20.30;;;;;;;;;;5070211;28;20444;-74
2023/03/01 03:10:16;;;;;;;22.43;18.80;;;;;;;;;;5069984;28;20474;-75
2023/03/01 03:12:43;;;;;;;24.03;18.03;;;;;;;;;;5069109;28;20526;-74
2023/03/01 03:15:12;;;;;;;24.00;19.00;;;;;;;;;;5069849;28;20445;-75
2023/03/01 03:17:40;;;;;;;25.23;19.20;;;;;;;;;;5053340;28;20484;-75
2023/03/01 03:20:10;;;;;;;24.67;19.33;;;;;;;;;;5049719;28;20465;-75
2023/03/01 03:22:39;;;;;;;22.90;17.97;;;;;;;;;;5049534;28;20454;-76
2023/03/01 03:25:10;;;;;;;27.97;18.73;;;;;;;;;;5049705;28;20449;-75
2023/03/01 03:27:37;;;;;;;22.43;18.30;;;;;;;;;;5049896;28;20450;-76
2023/03/01 03:30:08;;;;;;;24.73;18.57;;;;;;;;;;5050098;28;20452;-75
2023/03/01 03:32:35;;;;;;;25.20;19.40;;;;;;;;;;5049556;28;20531;-74
2023/03/01 03:35:08;;;;;;;24.73;18.20;;;;;;;;;;5049879;28;20449;-75
2023/03/01 03:40:21;;;;;;;25.90;21.57;;;;;;;;;;5049899;28;20487;-74
2023/03/01 03:42:48;;;;;;;26.50;19.77;;;;;;;;;;5049216;28;21146;-74
2023/03/01 03:45:16;;;;;;;25.63;19.20;;;;;;;;;;5049640;28;20477;-74
2023/03/01 03:47:43;;;;;;;24.63;19.57;;;;;;;;;;5049503;28;20782;-76
2023/03/01 03:50:10;;;;;;;23.90;19.67;;;;;;;;;;5049746;28;20928;-75
2023/03/01 03:52:37;;;;;;;27.10;20.10;;;;;;;;;;5049419;28;20622;-77
2023/03/01 03:55:09;;;;;;;25.00;18.67;;;;;;;;;;5049976;28;20867;-75
2023/03/01 03:57:37;;;;;;;32.17;20.83;;;;;;;;;;5049711;28;20487;-74
2023/03/01 04:00:05;;;;;;;23.87;18.43;;;;;;;;;;5049910;28;20446;-77
2023/03/01 04:02:32;;;;;;;26.10;19.53;;;;;;;;;;5050089;28;20454;-76
2023/03/01 04:04:59;;;;;;;25.70;20.33;;;;;;;;;;5050205;28;20485;-75
2023/03/01 04:07:26;;;;;;;23.70;19.00;;;;;;;;;;5051488;28;20445;-75
2023/03/01 04:09:53;;;;;;;27.63;21.63;;;;;;;;;;5053255;28;20536;-76
2023/03/01 04:12:22;;;;;;;25.57;20.73;;;;;;;;;;5049855;28;21062;-76
2023/03/01 04:14:51;;;;;;;25.07;19.70;;;;;;;;;;5049609;28;20453;-77
2023/03/01 04:17:18;;;;;;;24.10;19.90;;;;;;;;;;5063733;28;20444;-75
2023/03/01 04:19:48;;;;;;;24.60;19.50;;;;;;;;;;5069646;28;20444;-76
2023/03/01 04:22:17;;;;;;;22.90;18.33;;;;;;;;;;5069828;28;20463;-75
2023/03/01 04:24:44;;;;;;;29.87;20.57;;;;;;;;;;5069654;28;20924;-76
2023/03/01 04:27:11;;;;;;;26.87;20.03;;;;;;;;;;5069935;28;20458;-75
2023/03/01 04:29:39;;;;;;;26.23;19.70;;;;;;;;;;5072020;28;20448;-76
2023/03/01 04:32:08;;;;;;;25.80;18.27;;;;;;;;;;5070173;28;20473;-75
2023/03/01 04:34:35;;;;;;;24.03;19.33;;;;;;;;;;5069440;28;20887;-75
2023/03/01 04:37:02;;;;;;;24.70;19.30;;;;;;;;;;5069867;28;20937;-76
2023/03/01 04:39:29;;;;;;;26.53;21.23;;;;;;;;;;5072505;28;20452;-75
2023/03/01 04:41:56;;;;;;;25.53;20.47;;;;;;;;;;5072870;28;20456;-75
2023/03/01 04:44:23;;;;;;;28.40;19.20;;;;;;;;;;5073413;28;20559;-74
2023/03/01 04:46:51;;;;;;;28.90;19.97;;;;;;;;;;5073820;28;20974;-77
2023/03/01 04:49:19;;;;;;;29.80;20.87;;;;;;;;;;5073434;28;20445;-74
2023/03/01 04:51:46;;;;;;;24.20;19.20;;;;;;;;;;5072593;28;20848;-75
2023/03/01 04:54:13;;;;;;;24.90;20.33;;;;;;;;;;5072355;28;20460;-75
2023/03/01 04:56:40;;;;;;;25.83;20.47;;;;;;;;;;5073030;28;20464;-75
2023/03/01 04:59:09;;;;;;;26.07;20.03;;;;;;;;;;5074909;28;20449;-75
2023/03/01 05:01:37;;;;;;;26.50;20.33;;;;;;;;;;5078128;28;20467;-75
2023/03/01 05:04:05;;;;;;;28.50;20.23;;;;;;;;;;5079050;28;20468;-75
2023/03/01 05:06:33;;;;;;;25.27;19.40;;;;;;;;;;5081464;28;20456;-75
2023/03/01 05:09:01;;;;;;;27.83;22.07;;;;;;;;;;5077968;28;20476;-74
2023/03/01 05:11:33;;;;;;;26.00;20.13;;;;;;;;;;5074209;28;20455;-76
2023/03/01 05:14:00;;;;;;;24.70;20.47;;;;;;;;;;5072853;28;20838;-74
2023/03/01 05:16:27;;;;;;;23.73;20.10;;;;;;;;;;5073534;28;20436;-74
2023/03/01 05:18:55;;;;;;;28.23;20.40;;;;;;;;;;5073697;28;20444;-75
2023/03/01 05:21:22;;;;;;;21.97;19.20;;;;;;;;;;5078135;28;20420;-80
2023/03/01 05:23:51;;;;;;;28.00;21.10;;;;;;;;;;5088946;28;20506;-76
2023/03/01 05:26:19;;;;;;;25.23;19.30;;;;;;;;;;5074678;28;20801;-75
2023/03/01 05:28:46;;;;;;;29.00;20.70;;;;;;;;;;5074618;28;20810;-77
2023/03/01 05:31:13;;;;;;;28.40;20.50;;;;;;;;;;5075256;28;20451;-75
2023/03/01 05:33:41;;;;;;;24.47;19.57;;;;;;;;;;5073567;28;21027;-76
2023/03/01 05:36:09;;;;;;;26.90;20.33;;;;;;;;;;5076002;28;20458;-75
2023/03/01 05:38:36;;;;;;;26.03;19.93;;;;;;;;;;5074221;28;20517;-75
2023/03/01 05:41:05;;;;;;;26.47;19.87;;;;;;;;;;5073903;28;20699;-75
2023/03/01 05:43:33;;;;;;;28.03;21.37;;;;;;;;;;5073972;28;20463;-77
2023/03/01 05:46:00;;;;;;;26.20;19.53;;;;;;;;;;5073606;28;20449;-76
2023/03/01 05:48:27;;;;;;;24.57;19.60;;;;;;;;;;5071479;28;20436;-73
2023/03/01 05:50:54;;;;;;;27.07;19.87;;;;;;;;;;5071451;28;20550;-76
2023/03/01 05:53:22;;;;;;;26.83;19.63;;;;;;;;;;5071125;28;20489;-75
2023/03/01 05:55:49;;;;;;;25.07;19.87;;;;;;;;;;5071363;28;20444;-75
2023/03/01 05:58:18;;;;;;;25.87;20.67;;;;;;;;;;5071788;28;20441;-74
2023/03/01 06:00:47;;;;;;;28.53;20.00;;;;;;;;;;5071075;28;20465;-76
2023/03/01 06:03:15;;;;;;;26.57;20.57;;;;;;;;;;5071025;28;20547;-75
2023/03/01 06:05:42;;;;;;;29.50;19.67;;;;;;;;;;5071439;28;20631;-77
2023/03/01 06:08:10;;;;;;;24.20;19.83;;;;;;;;;;5071427;28;20441;-75
2023/03/01 06:10:38;;;;;;;27.70;19.33;;;;;;;;;;5071201;28;20452;-77
2023/03/01 06:13:05;;;;;;;27.53;21.03;;;;;;;;;;5071278;28;20606;-76
2023/03/01 06:15:33;;;;;;;27.57;19.53;;;;;;;;;;5071306;28;20454;-75
2023/03/01 06:18:00;;;;;;;25.20;20.47;;;;;;;;;;5051591;28;20495;-77
2023/03/01 06:20:28;;;;;;;25.53;19.97;;;;;;;;;;5051438;28;20457;-76
2023/03/01 06:22:55;;;;;;;27.33;20.63;;;;;;;;;;5051110;28;20472;-76
2023/03/01 06:25:23;;;;;;;24.77;20.57;;;;;;;;;;5053332;28;20505;-75
2023/03/01 06:27:51;;;;;;;26.67;19.60;;;;;;;;;;5050825;28;20921;-74
2023/03/01 06:30:20;;;;;;;28.03;19.97;;;;;;;;;;5051120;28;20450;-75
2023/03/01 06:32:48;;;;;;;26.70;20.00;;;;;;;;;;5050657;28;20559;-75
2023/03/01 06:35:17;;;;;;;26.07;19.47;;;;;;;;;;5065993;28;20434;-74
2023/03/01 06:37:44;;;;;;;32.90;21.77;;;;;;;;;;5069480;28;20502;-79
2023/03/01 06:40:13;;;;;;;27.80;20.17;;;;;;;;;;5073787;28;20432;-74
2023/03/01 06:42:40;;;;;;;28.10;21.40;;;;;;;;;;5075212;28;20460;-76
2023/03/01 06:45:08;;;;;;;31.20;20.97;;;;;;;;;;5076169;28;21054;-75
2023/03/01 06:47:35;;;;;;;27.30;20.47;;;;;;;;;;5076522;28;20784;-74
2023/03/01 06:50:04;;;;;;;29.33;20.90;;;;;;;;;;5077975;28;20462;-75
2023/03/01 06:52:31;;;;;;;27.50;20.63;;;;;;;;;;5071156;28;20496;-76
2023/03/01 06:54:59;;;;;;;26.30;19.93;;;;;;;;;;5071105;28;20536;-75
2023/03/01 06:57:26;;;;;;;31.73;21.67;;;;;;;;;;5071431;28;20441;-74
2023/03/01 06:59:53;;;;;;;35.43;21.20;;;;;;;;;;5069902;28;20436;-74
2023/03/01 07:02:20;;;;;;;29.33;23.07;;;;;;;;;;5070040;28;20460;-75
2023/03/01 07:04:47;;;;;;;30.93;21.87;;;;;;;;;;5071025;28;20456;-74
2023/03/01 07:07:15;;;;;;;28.13;19.63;;;;;;;;;;5070869;28;20448;-77
2023/03/01 07:09:42;;;;;;;25.93;20.60;;;;;;;;;;5072059;28;20444;-77
2023/03/01 07:12:09;;;;;;;27.73;20.90;;;;;;;;;;5080115;28;20511;-76
2023/03/01 07:14:36;;;;;;;28.23;21.67;;;;;;;;;;5070531;28;20448;-76
2023/03/01 07:17:03;;;;;;;27.90;21.90;;;;;;;;;;5070779;28;20453;-74
2023/03/01 07:19:31;;;;;;;26.37;20.10;;;;;;;;;;5071134;28;20570;-76
2023/03/01 07:21:58;;;;;;;29.57;21.30;;;;;;;;;;5070440;28;20446;-77
2023/03/01 07:24:26;;;;;;;25.57;21.47;;;;;;;;;;5070311;28;20909;-75
2023/03/01 07:26:53;;;;;;;29.90;21.60;;;;;;;;;;5070586;28;20444;-77
2023/03/01 07:29:21;;;;;;;28.80;20.57;;;;;;;;;;5070403;28;20535;-77
2023/03/01 07:31:48;;;;;;;27.27;20.80;;;;;;;;;;5069636;28;20459;-76
2023/03/01 07:34:15;;;;;;;26.93;20.00;;;;;;;;;;5069597;28;20480;-75
2023/03/01 07:36:43;;;;;;;26.50;21.10;;;;;;;;;;5069865;28;20452;-77
2023/03/01 07:39:10;;;;;;;29.07;21.00;;;;;;;;;;5070871;28;20480;-77
2023/03/01 07:41:39;;;;;;;28.63;21.07;;;;;;;;;;5072014;28;20445;-75
2023/03/01 07:44:06;;;;;;;26.73;21.43;;;;;;;;;;5070251;28;20465;-78
2023/03/01 07:46:33;;;;;;;30.90;21.77;;;;;;;;;;5069794;28;20452;-75
2023/03/01 07:49:00;;;;;;;32.47;21.50;;;;;;;;;;5070058;28;20451;-77
2023/03/01 07:51:27;;;;;;;26.53;20.57;;;;;;;;;;5069474;28;20547;-75
2023/03/01 07:53:54;;;;;;;31.03;22.23;;;;;;;;;;5069743;28;20496;-77
2023/03/01 07:56:21;;;;;;;28.73;21.43;;;;;;;;;;5072078;28;20448;-76
2023/03/01 07:58:50;;;;;;;25.60;19.97;;;;;;;;;;5070343;28;20986;-76
2023/03/01 08:01:19;;;;;;;35.27;21.80;;;;;;;;;;5071150;28;20456;-75
2023/03/01 08:03:46;;;;;;;30.80;21.60;;;;;;;;;;5069359;28;20461;-76
2023/03/01 08:06:15;;;;;;;29.47;21.40;;;;;;;;;;5069754;28;20505;-76
2023/03/01 08:08:42;;;;;;;23.83;21.23;;;;;;;;;;5069289;28;20456;-77
2023/03/01 08:11:11;;;;;;;26.73;20.80;;;;;;;;;;5070737;28;20452;-76
2023/03/01 08:13:38;;;;;;;25.07;19.73;;;;;;;;;;5073052;28;20492;-75
2023/03/01 08:16:08;;;;;;;28.60;21.20;;;;;;;;;;5069675;28;20492;-76
2023/03/01 08:18:35;;;;;;;27.23;20.23;;;;;;;;;;5052907;28;20815;-77
2023/03/01 08:21:03;;;;;;;27.47;20.80;;;;;;;;;;5053382;28;20453;-78
2023/03/01 08:23:30;;;;;;;26.00;21.47;;;;;;;;;;5052705;28;21007;-76
2023/03/01 08:26:04;;;;;;;30.30;20.80;;;;;;;;;;5053249;28;20913;-76
2023/03/01 08:28:31;;;;;;;31.47;22.00;;;;;;;;;;5053422;28;20449;-75
2023/03/01 08:30:58;;;;;;;27.73;21.30;;;;;;;;;;5055255;28;20536;-76
2023/03/01 08:33:27;;;;;;;25.37;21.70;;;;;;;;;;5055233;28;21175;-76
2023/03/01 08:35:54;;;;;;;26.43;21.10;;;;;;;;;;5053543;28;20445;-76
2023/03/01 08:38:21;;;;;;;26.50;20.60;;;;;;;;;;5053426;28;20456;-76
2023/03/01 08:40:48;;;;;;;27.60;21.60;;;;;;;;;;5053788;28;20795;-76
2023/03/01 08:43:15;;;;;;;24.77;21.77;;;;;;;;;;5069769;28;20453;-78
2023/03/01 08:45:42;;;;;;;26.40;20.87;;;;;;;;;;5068032;28;20899;-76
2023/03/01 08:48:09;;;;;;;22.90;19.90;;;;;;;;;;5056503;28;20438;-75
2023/03/01 08:50:37;;;;;;;38.83;30.40;;;;;;;;;;5055120;28;20445;-75
2023/03/01 08:53:04;;;;;;;22.43;18.90;;;;;;;;;;5059287;28;20481;-75
2023/03/01 08:55:31;;;;;;;27.53;20.93;;;;;;;;;;5058961;28;20491;-74
2023/03/01 08:57:59;;;;;;;25.53;20.40;;;;;;;;;;5058450;28;20449;-77
2023/03/01 09:00:26;;;;;;;26.90;22.00;;;;;;;;;;5059273;28;20522;-77
2023/03/01 09:02:53;;;;;;;26.03;21.20;;;;;;;;;;5065670;28;20467;-76
2023/03/01 09:05:20;;;;;;;25.20;21.30;;;;;;;;;;5073965;28;20453;-76
2023/03/01 09:07:48;;;;;;;25.20;22.13;;;;;;;;;;5074274;28;20448;-76
2023/03/01 09:10:15;;;;;;;22.83;19.70;;;;;;;;;;5072173;28;20863;-77
2023/03/01 09:12:42;;;;;;;29.30;21.13;;;;;;;;;;5073953;28;20479;-77
2023/03/01 09:15:10;;;;;;;27.70;21.83;;;;;;;;;;5072709;28;20518;-76
2023/03/01 09:17:37;;;;;;;26.43;20.60;;;;;;;;;;5055723;28;20445;-76
2023/03/01 09:20:05;;;;;;;24.07;20.73;;;;;;;;;;5051829;28;20965;-77
2023/03/01 09:22:34;;;;;;;24.17;20.37;;;;;;;;;;5051452;28;20548;-77
2023/03/01 09:25:03;;;;;;;22.77;20.40;;;;;;;;;;5051699;28;20507;-74
2023/03/01 09:27:31;;;;;;;31.03;21.80;;;;;;;;;;5053118;28;20967;-75
2023/03/01 09:29:58;;;;;;;24.90;21.53;;;;;;;;;;5052975;28;20437;-76
2023/03/01 09:32:25;;;;;;;26.23;22.10;;;;;;;;;;5053100;28;20473;-76
2023/03/01 09:35:08;;;;;;;26.73;22.47;;;;;;;;;;5053180;28;20566;-77
2023/03/01 09:37:39;;;;;;;23.83;19.80;;;;;;;;;;5054313;28;20477;-77
2023/03/01 09:40:16;;;;;;;24.07;21.10;;;;;;;;;;5057886;28;20530;-74
2023/03/01 09:42:48;;;;;;;25.40;21.53;;;;;;;;;;5053850;28;20509;-73
2023/03/01 09:45:21;;;;;;;25.70;21.70;;;;;;;;;;5053194;28;20442;-76
2023/03/01 09:47:51;;;;;;;24.43;21.07;;;;;;;;;;5056171;28;20996;-75
2023/03/01 09:50:19;;;;;;;25.93;20.57;;;;;;;;;;5054446;28;20450;-73
2023/03/01 09:52:48;;;;;;;25.57;21.33;;;;;;;;;;5054156;28;20466;-74
2023/03/01 09:55:18;;;;;;;28.83;23.60;;;;;;;;;;5054008;28;20445;-75
2023/03/01 09:57:51;;;;;;;24.27;21.23;;;;;;;;;;5053204;28;20828;-74
2023/03/01 10:00:21;;;;;;;25.70;22.03;;;;;;;;;;5054134;28;20461;-74
2023/03/01 10:02:50;;;;;;;23.87;21.03;;;;;;;;;;5051411;28;20465;-74
2023/03/01 10:05:29;;;;;;;25.90;21.40;;;;;;;;;;5052578;28;20475;-75
2023/03/01 10:08:02;;;;;;;23.80;21.10;;;;;;;;;;5051901;28;20449;-74
2023/03/01 10:10:35;;;;;;;24.23;21.23;;;;;;;;;;5051500;28;20446;-75
2023/03/01 10:13:05;;;;;;;24.70;21.80;;;;;;;;;;5050776;28;20476;-75
2023/03/01 10:15:43;;;;;;;23.70;20.30;;;;;;;;;;5058647;28;20941;-74
2023/03/01 10:18:14;;;;;;;24.30;21.33;;;;;;;;;;5052704;28;21155;-74
2023/03/01 10:20:45;;;;;;;21.93;19.30;;;;;;;;;;5051754;28;20460;-75
2023/03/01 10:23:12;;;;;;;25.93;20.77;;;;;;;;;;5050645;28;21008;-75
2023/03/01 10:25:48;;;;;;;22.37;19.97;;;;;;;;;;5050522;28;20444;-74
2023/03/01 10:28:19;;;;;;;23.00;19.27;;;;;;;;;;5051217;28;20453;-75
2023/03/01 10:30:46;;;;;;;21.93;19.60;;;;;;;;;;5050665;28;21047;-74
2023/03/01 10:33:16;;;;;;;21.87;19.47;;;;;;;;;;5050765;28;20538;-75
2023/03/01 10:35:43;;;;;;;25.00;19.70;;;;;;;;;;5049837;28;20510;-74
2023/03/01 10:38:13;;;;;;;24.53;21.53;;;;;;;;;;5050648;28;20453;-74
2023/03/01 10:40:51;;;;;;;22.43;20.10;;;;;;;;;;5050494;28;20569;-75
2023/03/01 10:43:20;;;;;;;23.00;20.60;;;;;;;;;;5058479;28;20795;-74
2023/03/01 10:45:48;;;;;;;21.00;18.80;;;;;;;;;;5069349;28;20456;-75
2023/03/01 10:48:16;;;;;;;22.30;19.63;;;;;;;;;;5072461;28;20463;-73
2023/03/01 10:50:43;;;;;;;22.00;19.70;;;;;;;;;;5072289;28;20456;-76
2023/03/01 10:53:23;;;;;;;21.93;19.63;;;;;;;;;;5070163;28;20547;-74
2023/03/01 10:55:58;;;;;;;21.80;18.63;;;;;;;;;;5070220;28;20460;-74
2023/03/01 10:58:26;;;;;;;21.23;18.93;;;;;;;;;;5069235;28;20834;-75
2023/03/01 11:00:54;;;;;;;21.43;18.30;;;;;;;;;;5068910;28;20444;-74
2023/03/01 11:03:23;;;;;;;21.23;19.13;;;;;;;;;;5069022;28;20567;-76
2023/03/01 11:05:59;;;;;;;21.17;19.00;;;;;;;;;;5069044;28;20948;-76
2023/03/01 11:08:36;;;;;;;22.70;20.20;;;;;;;;;;5070166;28;20869;-74
2023/03/01 11:11:21;;;;;;;22.73;20.47;;;;;;;;;;5070002;28;20448;-73
2023/03/01 11:13:54;;;;;;;21.83;19.53;;;;;;;;;;5066876;28;20484;-75
2023/03/01 11:16:26;;;;;;;22.57;20.17;;;;;;;;;;5061637;28;20437;-73
2023/03/01 11:19:00;;;;;;;23.23;20.77;;;;;;;;;;5048042;28;20458;-74
2023/03/01 11:21:29;;;;;;;21.30;19.20;;;;;;;;;;5046540;28;20441;-76
2023/03/01 11:23:56;;;;;;;21.27;19.07;;;;;;;;;;5046888;28;20475;-75
2023/03/01 11:26:23;;;;;;;22.13;19.83;;;;;;;;;;5047527;28;20460;-74
2023/03/01 11:28:53;;;;;;;21.23;18.97;;;;;;;;;;5047210;28;20755;-74
2023/03/01 11:31:22;;;;;;;22.50;20.13;;;;;;;;;;5047902;28;20446;-74
2023/03/01 11:33:51;;;;;;;23.40;20.03;;;;;;;;;;5046726;28;20988;-75
2023/03/01 11:36:21;;;;;;;31.53;24.77;;;;;;;;;;5046730;28;20453;-74
2023/03/01 11:38:48;;;;;;;20.90;18.90;;;;;;;;;;5047714;28;20453;-74
2023/03/01 11:41:17;;;;;;;21.10;19.03;;;;;;;;;;5047886;28;20449;-74
2023/03/01 11:43:49;;;;;;;22.10;19.80;;;;;;;;;;5047714;28;20953;-75
2023/03/01 11:46:34;;;;;;;22.30;19.90;;;;;;;;;;5049245;28;20836;-75
2023/03/01 11:49:08;;;;;;;23.90;19.17;;;;;;;;;;5051984;28;20441;-74
2023/03/01 11:51:41;;;;;;;20.90;18.70;;;;;;;;;;5052245;28;20452;-76
2023/03/01 11:54:15;;;;;;;22.40;20.30;;;;;;;;;;5051575;28;20480;-76
2023/03/01 11:56:45;;;;;;;23.50;19.50;;;;;;;;;;5052086;28;20536;-76
2023/03/01 11:59:26;;;;;;;20.73;18.63;;;;;;;;;;5051796;28;20449;-74
2023/03/01 12:02:00;;;;;;;20.63;18.53;;;;;;;;;;5052150;28;20429;-74
2023/03/01 12:04:49;;;;;;;20.37;18.20;;;;;;;;;;5051380;28;20465;-75
2023/03/01 12:07:20;;;;;;;19.90;17.80;;;;;;;;;;5052040;28;20453;-74
2023/03/01 12:09:55;;;;;;;20.53;18.30;;;;;;;;;;5052053;28;20461;-74
2023/03/01 12:12:28;;;;;;;21.80;19.33;;;;;;;;;;5051638;28;20472;-75
2023/03/01 12:15:01;;;;;;;19.73;17.73;;;;;;;;;;5051528;28;20481;-73
2023/03/01 12:17:41;;;;;;;20.50;17.97;;;;;;;;;;5051366;28;20434;-73
2023/03/01 12:20:16;;;;;;;18.10;16.30;;;;;;;;;;5051409;28;20494;-73
2023/03/01 12:22:50;;;;;;;20.17;18.07;;;;;;;;;;5051984;28;20473;-73
2023/03/01 12:25:21;;;;;;;18.10;16.20;;;;;;;;;;5052561;28;20455;-74
2023/03/01 12:27:58;;;;;;;20.07;18.03;;;;;;;;;;5050912;28;20449;-73
2023/03/01 12:30:31;;;;;;;18.20;16.20;;;;;;;;;;5050979;28;20547;-74
2023/03/01 12:33:05;;;;;;;18.90;17.00;;;;;;;;;;5050749;28;20469;-73
2023/03/01 12:35:48;;;;;;;19.77;17.67;;;;;;;;;;5051384;28;20852;-73
2023/03/01 12:38:22;;;;;;;19.13;17.13;;;;;;;;;;5053243;28;20472;-74
2023/03/01 12:41:04;;;;;;;19.17;17.27;;;;;;;;;;5053213;28;20544;-77
2023/03/01 12:43:37;;;;;;;18.40;16.60;;;;;;;;;;5053263;28;20492;-73
2023/03/01 12:46:12;;;;;;;19.10;17.20;;;;;;;;;;5054184;28;20997;-74
2023/03/01 12:48:44;;;;;;;17.63;15.83;;;;;;;;;;5054257;28;20506;-75
2023/03/01 12:51:15;;;;;;;16.77;14.97;;;;;;;;;;5051976;28;20821;-74
2023/03/01 12:53:44;;;;;;;19.03;17.03;;;;;;;;;;5053797;28;20453;-74
2023/03/01 12:56:12;;;;;;;18.80;16.83;;;;;;;;;;5050839;28;20453;-75
2023/03/01 12:58:43;;;;;;;18.73;16.03;;;;;;;;;;5049922;28;20526;-75
2023/03/01 13:01:17;;;;;;;18.63;16.83;;;;;;;;;;5052468;28;20503;-74
2023/03/01 13:03:53;;;;;;;16.47;14.73;;;;;;;;;;5052150;28;20466;-73
2023/03/01 13:06:26;;;;;;;17.13;15.43;;;;;;;;;;5052331;28;20437;-74
2023/03/01 13:08:57;;;;;;;18.13;16.23;;;;;;;;;;5050991;28;20437;-74
2023/03/01 13:11:25;;;;;;;17.20;15.60;;;;;;;;;;5053279;28;20465;-73
2023/03/01 13:13:54;;;;;;;17.10;15.33;;;;;;;;;;5054919;28;20548;-77
2023/03/01 13:16:23;;;;;;;16.83;15.07;;;;;;;;;;5062412;28;20456;-75
2023/03/01 13:18:50;;;;;;;16.87;15.20;;;;;;;;;;5075033;28;20453;-73
2023/03/01 13:21:30;;;;;;;16.80;15.07;;;;;;;;;;5075025;28;20487;-73
2023/03/01 13:23:57;;;;;;;17.90;16.10;;;;;;;;;;5072409;28;20972;-74
2023/03/01 13:26:24;;;;;;;20.40;18.30;;;;;;;;;;5071696;28;20452;-74
2023/03/01 13:28:56;;;;;;;18.03;16.23;;;;;;;;;;5072292;28;20921;-73
2023/03/01 13:31:42;;;;;;;19.23;16.50;;;;;;;;;;5074046;28;20449;-73
2023/03/01 13:34:30;;;;;;;19.03;17.07;;;;;;;;;;5073112;28;20472;-73
2023/03/01 13:37:10;;;;;;;18.07;16.37;;;;;;;;;;5071078;28;20448;-74
2023/03/01 13:39:40;;;;;;;19.07;17.07;;;;;;;;;;5073697;28;20445;-75
2023/03/01 13:42:22;;;;;;;19.90;17.80;;;;;;;;;;5073279;28;21062;-75
2023/03/01 13:44:50;;;;;;;17.90;16.20;;;;;;;;;;5072429;28;20502;-74
2023/03/01 13:47:18;;;;;;;21.57;16.43;;;;;;;;;;5073503;28;20506;-75
2023/03/01 13:49:49;;;;;;;22.30;19.90;;;;;;;;;;5075088;28;20439;-75
2023/03/01 13:52:37;;;;;;;19.90;17.83;;;;;;;;;;5074254;28;20465;-74
2023/03/01 13:55:06;;;;;;;24.83;19.23;;;;;;;;;;5072146;28;20487;-73
2023/03/01 13:57:34;;;;;;;21.57;19.37;;;;;;;;;;5072252;28;20937;-75
2023/03/01 14:00:02;;;;;;;21.80;19.50;;;;;;;;;;5071696;28;20547;-74
2023/03/01 14:02:29;;;;;;;21.03;18.83;;;;;;;;;;5071758;28;20460;-74
2023/03/01 14:05:00;;;;;;;19.97;18.07;;;;;;;;;;5071384;28;20494;-74
2023/03/01 14:07:30;;;;;;;20.90;18.87;;;;;;;;;;5072023;28;20441;-74
2023/03/01 14:09:59;;;;;;;21.70;19.47;;;;;;;;;;5071518;28;20440;-74
2023/03/01 14:12:37;;;;;;;22.57;19.00;;;;;;;;;;5070888;28;20584;-74
2023/03/01 14:15:08;;;;;;;22.60;20.10;;;;;;;;;;5077924;28;20460;-72
2023/03/01 14:17:49;;;;;;;20.73;18.50;;;;;;;;;;5074386;28;20525;-75
2023/03/01 14:20:19;;;;;;;22.67;20.27;;;;;;;;;;5053736;28;20503;-74
2023/03/01 14:22:49;;;;;;;21.57;19.47;;;;;;;;;;5051850;28;20492;-74
2023/03/01 14:25:21;;;;;;;21.63;19.33;;;;;;;;;;5051116;28;20536;-75
2023/03/01 14:27:53;;;;;;;22.60;20.27;;;;;;;;;;5052093;28;20945;-75
2023/03/01 14:30:22;;;;;;;22.87;20.53;;;;;;;;;;5052920;28;20789;-74
2023/03/01 14:32:54;;;;;;;22.23;19.90;;;;;;;;;;5051803;28;20464;-73